Blackstone, MA (01504)

3:50 PM EDT on July 01, 2015 (GMT -0400)
Bernon Section | | Change Station
CLOSE
Current Station
Personal Weather Station
Location: Woonsocket, RI
Elevation: 235 ft
Nearby Weather Stations

Elev 235 ft 42.00 °N, 71.51 °W | Updated 23 seconds ago

Mostly Cloudy
Mostly Cloudy
84.0 °F
Feels Like 86 °F
N
3.6
Wind Variable Wind from South
Gusts 4.9 mph

Today
High -- | Low -- °F
--% Chance of Precip.
Yesterday
High -- | Low -- °F
Precip. -- in
5:14 AM 8:25 PM
Full, 100% visible
Pressure 29.73 in
Visibility 10.0 miles
Clouds Few 3700 ft
Few 4300 ft
Heat Index 86 °F
Dew Point 65 °F
Humidity 53%
Rainfall 0.60 in
Snow Depth Not available.
UV 7 out of 12
Pollen 1.30 out of 12
Air Quality Not available.
Flu Activity Not available.
METAR KSFZ 011935Z AUTO 25006G14KT 10SM FEW037 FEW043 26/17 A2973 RMK AO1

More Conditions Fewer Conditions

Pressure 29.73 in
Visibility 10.0 miles
Clouds Few 3700 ft
Few 4300 ft
Heat Index 86 °F
Dew Point 65 °F
Humidity 53%
Rainfall 0.60 in
Snow Depth Not available.
UV 7 out of 12
Pollen 1.30 out of 12
Air Quality Not available.
Flu Activity Not available.
METAR KSFZ 011935Z AUTO 25006G14KT 10SM FEW037 FEW043 26/17 A2973 RMK AO1

More Conditions Fewer Conditions

10-Day Weather Forecast

×

Almanac

Astronomy

Jul. 01, 2015 Rise Set
Actual Time
Civil Twilight
Nautical Twilight
Astronomical Twilight
Moon
Length of Visible Light
Length of Day
Tomorrow will be .
, % of the Moon is Illuminated

Today's Extremes

State Highs State Lows

Community

WunderPhotos

Upload Photos

1,834,261 photos uploaded!

WunderBlogs® & News

Nearby

Air Quality

  Air Quality AQ Index Pollutant
Not available.

Snow Depth

Station Depth Elevation

Earthquake Activity

City Distance Mag. Time & Date
Minimum magnitude displayed is 2.5.

Coastal Water Temperatures

Place Temperature

Stations

Nearby Weather Stations

Station Location Temp. Windchill Dew Point Humidity Wind Precip. Elev Updated Type